Terminal Aerodrome Forecast
Issued by NWS

Home | Current Version | Previous Version | Text Only | Print | Product List | Glossary On
Versions: 1 2 3 4 5 6 7 8 9 10 11 12 13 14
000
FTUS42 KTAE 221723
TAFECP
TAF
KECP 221723Z 2218/2318 11009G18KT P6SM BKN025 OVC090
     FM222000 11008KT P6SM VCTS BKN040CB BKN100
     FM230600 12007KT P6SM -TSRA OVC025CB
     FM231500 27010KT P6SM BKN040=

USA.gov is the U.S. government's official web portal to all federal, state and local government web resources and services.